sensor_id;sensor_type;location;lat;lon;timestamp;P1;durP1;ratioP1;P2;durP2;ratioP2
13432;SDS011;6789;47.678;9.158;2023-07-09T00:00:06;5.13;;;2.95;;
13432;SDS011;6789;47.678;9.158;2023-07-09T00:05:13;5.53;;;3.40;;
13432;SDS011;6789;47.678;9.158;2023-07-09T00:10:13;5.90;;;3.50;;
13432;SDS011;6789;47.678;9.158;2023-07-09T00:15:11;7.97;;;4.13;;
13432;SDS011;6789;47.678;9.158;2023-07-09T00:20:18;5.88;;;3.60;;
13432;SDS011;6789;47.678;9.158;2023-07-09T00:25:10;5.28;;;3.10;;
13432;SDS011;6789;47.678;9.158;2023-07-09T00:30:12;7.50;;;3.90;;
13432;SDS011;6789;47.678;9.158;2023-07-09T00:35:14;4.07;;;3.20;;
13432;SDS011;6789;47.678;9.158;2023-07-09T00:40:09;3.45;;;2.97;;
13432;SDS011;6789;47.678;9.158;2023-07-09T00:45:07;6.05;;;3.45;;
13432;SDS011;6789;47.678;9.158;2023-07-09T00:50:33;4.57;;;3.45;;
13432;SDS011;6789;47.678;9.158;2023-07-09T00:55:33;5.40;;;3.60;;
13432;SDS011;6789;47.678;9.158;2023-07-09T01:00:34;4.30;;;3.28;;
13432;SDS011;6789;47.678;9.158;2023-07-09T01:05:38;6.80;;;3.70;;
13432;SDS011;6789;47.678;9.158;2023-07-09T01:10:30;5.85;;;3.30;;
13432;SDS011;6789;47.678;9.158;2023-07-09T01:15:22;4.95;;;3.70;;
13432;SDS011;6789;47.678;9.158;2023-07-09T01:20:15;5.68;;;3.67;;
13432;SDS011;6789;47.678;9.158;2023-07-09T01:25:16;12.18;;;3.55;;
13432;SDS011;6789;47.678;9.158;2023-07-09T01:30:13;4.43;;;3.25;;
13432;SDS011;6789;47.678;9.158;2023-07-09T01:35:15;4.63;;;3.70;;
13432;SDS011;6789;47.678;9.158;2023-07-09T01:40:11;7.20;;;3.75;;
13432;SDS011;6789;47.678;9.158;2023-07-09T01:45:22;7.25;;;3.83;;
13432;SDS011;6789;47.678;9.158;2023-07-09T01:50:15;5.57;;;3.80;;
13432;SDS011;6789;47.678;9.158;2023-07-09T01:55:11;8.35;;;3.92;;
13432;SDS011;6789;47.678;9.158;2023-07-09T02:00:15;5.95;;;3.50;;
13432;SDS011;6789;47.678;9.158;2023-07-09T02:05:08;6.65;;;3.88;;
13432;SDS011;6789;47.678;9.158;2023-07-09T02:10:02;6.70;;;3.47;;
13432;SDS011;6789;47.678;9.158;2023-07-09T02:14:54;5.95;;;3.80;;
13432;SDS011;6789;47.678;9.158;2023-07-09T02:19:46;4.60;;;3.58;;
13432;SDS011;6789;47.678;9.158;2023-07-09T02:24:38;5.82;;;3.90;;
13432;SDS011;6789;47.678;9.158;2023-07-09T02:29:30;5.38;;;3.40;;
13432;SDS011;6789;47.678;9.158;2023-07-09T02:34:24;5.55;;;4.03;;
13432;SDS011;6789;47.678;9.158;2023-07-09T02:39:17;5.78;;;3.33;;
13432;SDS011;6789;47.678;9.158;2023-07-09T02:44:10;4.70;;;3.53;;
13432;SDS011;6789;47.678;9.158;2023-07-09T02:49:02;5.28;;;3.97;;
13432;SDS011;6789;47.678;9.158;2023-07-09T02:53:56;6.10;;;3.30;;
13432;SDS011;6789;47.678;9.158;2023-07-09T02:58:51;5.00;;;3.60;;
13432;SDS011;6789;47.678;9.158;2023-07-09T03:03:42;4.90;;;3.55;;
13432;SDS011;6789;47.678;9.158;2023-07-09T03:08:35;5.07;;;3.45;;
13432;SDS011;6789;47.678;9.158;2023-07-09T03:13:27;4.88;;;3.40;;
13432;SDS011;6789;47.678;9.158;2023-07-09T03:18:18;4.68;;;3.33;;
13432;SDS011;6789;47.678;9.158;2023-07-09T03:23:10;7.13;;;3.33;;
13432;SDS011;6789;47.678;9.158;2023-07-09T03:28:02;4.63;;;3.40;;
13432;SDS011;6789;47.678;9.158;2023-07-09T03:32:54;7.20;;;3.92;;
13432;SDS011;6789;47.678;9.158;2023-07-09T03:37:46;7.68;;;3.60;;
13432;SDS011;6789;47.678;9.158;2023-07-09T03:42:37;5.40;;;3.60;;
13432;SDS011;6789;47.678;9.158;2023-07-09T03:47:29;6.95;;;3.80;;
13432;SDS011;6789;47.678;9.158;2023-07-09T03:52:21;6.18;;;3.47;;
13432;SDS011;6789;47.678;9.158;2023-07-09T03:57:13;5.38;;;3.88;;
13432;SDS011;6789;47.678;9.158;2023-07-09T04:02:05;5.65;;;3.50;;
13432;SDS011;6789;47.678;9.158;2023-07-09T04:06:58;6.55;;;3.45;;
13432;SDS011;6789;47.678;9.158;2023-07-09T04:11:49;5.78;;;3.97;;
13432;SDS011;6789;47.678;9.158;2023-07-09T04:16:41;5.43;;;3.95;;
13432;SDS011;6789;47.678;9.158;2023-07-09T04:21:33;7.10;;;3.90;;
13432;SDS011;6789;47.678;9.158;2023-07-09T04:26:25;4.72;;;3.50;;
13432;SDS011;6789;47.678;9.158;2023-07-09T04:31:17;6.97;;;3.67;;
13432;SDS011;6789;47.678;9.158;2023-07-09T04:36:09;5.60;;;3.33;;
13432;SDS011;6789;47.678;9.158;2023-07-09T04:41:04;5.07;;;3.85;;
13432;SDS011;6789;47.678;9.158;2023-07-09T04:45:55;5.75;;;3.85;;
13432;SDS011;6789;47.678;9.158;2023-07-09T04:50:47;4.78;;;3.22;;
13432;SDS011;6789;47.678;9.158;2023-07-09T04:55:41;6.28;;;3.90;;
13432;SDS011;6789;47.678;9.158;2023-07-09T05:00:33;5.13;;;4.03;;
13432;SDS011;6789;47.678;9.158;2023-07-09T05:05:25;4.82;;;3.83;;
13432;SDS011;6789;47.678;9.158;2023-07-09T05:10:16;7.85;;;5.13;;
13432;SDS011;6789;47.678;9.158;2023-07-09T05:15:08;7.97;;;4.55;;
13432;SDS011;6789;47.678;9.158;2023-07-09T05:20:01;6.88;;;4.30;;
13432;SDS011;6789;47.678;9.158;2023-07-09T05:24:53;7.30;;;4.28;;
13432;SDS011;6789;47.678;9.158;2023-07-09T05:29:44;5.55;;;4.18;;
13432;SDS011;6789;47.678;9.158;2023-07-09T05:34:36;4.40;;;4.00;;
13432;SDS011;6789;47.678;9.158;2023-07-09T05:39:28;6.90;;;3.45;;
13432;SDS011;6789;47.678;9.158;2023-07-09T05:44:20;4.80;;;3.30;;
13432;SDS011;6789;47.678;9.158;2023-07-09T05:49:11;4.38;;;3.35;;
13432;SDS011;6789;47.678;9.158;2023-07-09T05:54:05;4.40;;;3.65;;
13432;SDS011;6789;47.678;9.158;2023-07-09T05:58:57;3.75;;;3.35;;
13432;SDS011;6789;47.678;9.158;2023-07-09T06:03:48;4.13;;;3.15;;
13432;SDS011;6789;47.678;9.158;2023-07-09T06:08:41;4.63;;;3.78;;
13432;SDS011;6789;47.678;9.158;2023-07-09T06:13:33;5.57;;;3.95;;
13432;SDS011;6789;47.678;9.158;2023-07-09T06:18:25;4.10;;;3.13;;
13432;SDS011;6789;47.678;9.158;2023-07-09T06:23:21;4.75;;;3.78;;
13432;SDS011;6789;47.678;9.158;2023-07-09T06:28:17;4.78;;;3.10;;
13432;SDS011;6789;47.678;9.158;2023-07-09T06:33:11;4.65;;;3.50;;
13432;SDS011;6789;47.678;9.158;2023-07-09T06:38:06;5.05;;;3.40;;
13432;SDS011;6789;47.678;9.158;2023-07-09T06:42:58;6.10;;;4.10;;
13432;SDS011;6789;47.678;9.158;2023-07-09T06:47:50;5.40;;;3.95;;
13432;SDS011;6789;47.678;9.158;2023-07-09T06:52:41;6.93;;;4.00;;
13432;SDS011;6789;47.678;9.158;2023-07-09T06:57:33;5.47;;;3.88;;
13432;SDS011;6789;47.678;9.158;2023-07-09T07:02:25;5.88;;;3.42;;
13432;SDS011;6789;47.678;9.158;2023-07-09T07:07:19;5.20;;;3.67;;
13432;SDS011;6789;47.678;9.158;2023-07-09T07:12:19;5.45;;;3.35;;
13432;SDS011;6789;47.678;9.158;2023-07-09T07:17:36;7.43;;;3.95;;
13432;SDS011;6789;47.678;9.158;2023-07-09T07:22:28;6.82;;;3.28;;
13432;SDS011;6789;47.678;9.158;2023-07-09T07:27:19;4.60;;;3.60;;
13432;SDS011;6789;47.678;9.158;2023-07-09T07:32:12;6.93;;;4.25;;
13432;SDS011;6789;47.678;9.158;2023-07-09T07:37:04;6.18;;;4.07;;
13432;SDS011;6789;47.678;9.158;2023-07-09T07:41:56;6.50;;;3.70;;
13432;SDS011;6789;47.678;9.158;2023-07-09T07:46:48;6.50;;;3.78;;
13432;SDS011;6789;47.678;9.158;2023-07-09T07:51:42;4.43;;;3.63;;
13432;SDS011;6789;47.678;9.158;2023-07-09T07:56:36;5.22;;;3.75;;
13432;SDS011;6789;47.678;9.158;2023-07-09T08:01:31;4.65;;;3.53;;
13432;SDS011;6789;47.678;9.158;2023-07-09T08:06:26;7.03;;;3.50;;
13432;SDS011;6789;47.678;9.158;2023-07-09T08:11:18;5.20;;;4.07;;
13432;SDS011;6789;47.678;9.158;2023-07-09T08:16:10;5.47;;;4.00;;
13432;SDS011;6789;47.678;9.158;2023-07-09T08:21:03;6.50;;;4.15;;
13432;SDS011;6789;47.678;9.158;2023-07-09T08:25:56;7.13;;;3.72;;
13432;SDS011;6789;47.678;9.158;2023-07-09T08:30:54;5.63;;;3.78;;
13432;SDS011;6789;47.678;9.158;2023-07-09T08:35:50;5.20;;;4.00;;
13432;SDS011;6789;47.678;9.158;2023-07-09T08:45:57;5.47;;;4.22;;
13432;SDS011;6789;47.678;9.158;2023-07-09T08:50:57;4.43;;;3.72;;
13432;SDS011;6789;47.678;9.158;2023-07-09T08:56:07;4.85;;;3.67;;
13432;SDS011;6789;47.678;9.158;2023-07-09T09:01:02;4.38;;;3.53;;
13432;SDS011;6789;47.678;9.158;2023-07-09T09:06:03;4.38;;;3.67;;
13432;SDS011;6789;47.678;9.158;2023-07-09T09:11:15;4.85;;;3.70;;
13432;SDS011;6789;47.678;9.158;2023-07-09T09:16:39;5.90;;;3.78;;
13432;SDS011;6789;47.678;9.158;2023-07-09T09:21:36;5.18;;;3.67;;
13432;SDS011;6789;47.678;9.158;2023-07-09T09:26:32;7.00;;;3.83;;
13432;SDS011;6789;47.678;9.158;2023-07-09T09:31:27;5.07;;;3.67;;
13432;SDS011;6789;47.678;9.158;2023-07-09T09:41:15;4.43;;;3.53;;
13432;SDS011;6789;47.678;9.158;2023-07-09T09:46:19;5.93;;;3.50;;
13432;SDS011;6789;47.678;9.158;2023-07-09T09:51:15;6.38;;;3.28;;
13432;SDS011;6789;47.678;9.158;2023-07-09T09:56:14;4.40;;;3.35;;
13432;SDS011;6789;47.678;9.158;2023-07-09T10:01:17;4.38;;;3.58;;
13432;SDS011;6789;47.678;9.158;2023-07-09T10:06:20;4.45;;;3.30;;
13432;SDS011;6789;47.678;9.158;2023-07-09T10:11:39;6.22;;;4.05;;
13432;SDS011;6789;47.678;9.158;2023-07-09T10:16:49;4.78;;;3.38;;
13432;SDS011;6789;47.678;9.158;2023-07-09T10:22:00;4.75;;;3.42;;
13432;SDS011;6789;47.678;9.158;2023-07-09T10:27:09;5.50;;;3.90;;
13432;SDS011;6789;47.678;9.158;2023-07-09T10:32:34;5.30;;;3.80;;
13432;SDS011;6789;47.678;9.158;2023-07-09T10:43:38;8.75;;;4.00;;
13432;SDS011;6789;47.678;9.158;2023-07-09T10:48:57;4.57;;;3.42;;
13432;SDS011;6789;47.678;9.158;2023-07-09T10:59:32;4.45;;;3.03;;
13432;SDS011;6789;47.678;9.158;2023-07-09T11:04:35;3.28;;;2.60;;
13432;SDS011;6789;47.678;9.158;2023-07-09T11:15:35;4.63;;;3.00;;
13432;SDS011;6789;47.678;9.158;2023-07-09T11:21:22;3.33;;;2.80;;
13432;SDS011;6789;47.678;9.158;2023-07-09T11:26:21;3.58;;;2.92;;
13432;SDS011;6789;47.678;9.158;2023-07-09T11:31:37;4.70;;;3.17;;
13432;SDS011;6789;47.678;9.158;2023-07-09T11:36:57;4.68;;;2.85;;
13432;SDS011;6789;47.678;9.158;2023-07-09T11:41:55;4.85;;;2.85;;
13432;SDS011;6789;47.678;9.158;2023-07-09T11:47:00;3.80;;;2.22;;
13432;SDS011;6789;47.678;9.158;2023-07-09T11:52:42;5.22;;;2.55;;
13432;SDS011;6789;47.678;9.158;2023-07-09T11:57:41;4.25;;;2.92;;
13432;SDS011;6789;47.678;9.158;2023-07-09T12:02:53;2.75;;;2.40;;
13432;SDS011;6789;47.678;9.158;2023-07-09T12:07:51;4.47;;;2.58;;
13432;SDS011;6789;47.678;9.158;2023-07-09T12:12:53;2.95;;;2.50;;
13432;SDS011;6789;47.678;9.158;2023-07-09T12:17:58;3.58;;;2.50;;
13432;SDS011;6789;47.678;9.158;2023-07-09T12:23:09;4.82;;;2.30;;
13432;SDS011;6789;47.678;9.158;2023-07-09T12:28:18;4.03;;;2.10;;
13432;SDS011;6789;47.678;9.158;2023-07-09T12:33:15;4.60;;;1.95;;
13432;SDS011;6789;47.678;9.158;2023-07-09T12:38:15;2.10;;;1.90;;
13432;SDS011;6789;47.678;9.158;2023-07-09T12:43:16;1.52;;;1.40;;
13432;SDS011;6789;47.678;9.158;2023-07-09T12:48:23;2.80;;;1.80;;
13432;SDS011;6789;47.678;9.158;2023-07-09T12:53:20;1.75;;;1.65;;
13432;SDS011;6789;47.678;9.158;2023-07-09T12:58:50;2.47;;;1.90;;
13432;SDS011;6789;47.678;9.158;2023-07-09T13:03:35;2.60;;;1.50;;
13432;SDS011;6789;47.678;9.158;2023-07-09T13:08:28;1.92;;;1.42;;
13432;SDS011;6789;47.678;9.158;2023-07-09T13:13:23;2.25;;;1.70;;
13432;SDS011;6789;47.678;9.158;2023-07-09T13:18:16;2.25;;;1.50;;
13432;SDS011;6789;47.678;9.158;2023-07-09T13:23:09;2.35;;;1.50;;
13432;SDS011;6789;47.678;9.158;2023-07-09T13:28:03;1.73;;;1.30;;
13432;SDS011;6789;47.678;9.158;2023-07-09T13:32:54;2.28;;;1.70;;
13432;SDS011;6789;47.678;9.158;2023-07-09T13:37:46;2.05;;;1.50;;
13432;SDS011;6789;47.678;9.158;2023-07-09T13:42:38;3.72;;;1.92;;
13432;SDS011;6789;47.678;9.158;2023-07-09T13:47:32;2.55;;;1.70;;
13432;SDS011;6789;47.678;9.158;2023-07-09T13:52:26;2.20;;;1.83;;
13432;SDS011;6789;47.678;9.158;2023-07-09T13:57:19;2.95;;;2.17;;
13432;SDS011;6789;47.678;9.158;2023-07-09T14:02:17;5.13;;;1.92;;
13432;SDS011;6789;47.678;9.158;2023-07-09T14:07:34;3.67;;;2.00;;
13432;SDS011;6789;47.678;9.158;2023-07-09T14:12:32;3.53;;;2.10;;
13432;SDS011;6789;47.678;9.158;2023-07-09T14:17:32;3.13;;;2.22;;
13432;SDS011;6789;47.678;9.158;2023-07-09T14:22:32;4.10;;;2.35;;
13432;SDS011;6789;47.678;9.158;2023-07-09T14:27:31;5.40;;;2.20;;
13432;SDS011;6789;47.678;9.158;2023-07-09T14:37:54;4.05;;;2.70;;
13432;SDS011;6789;47.678;9.158;2023-07-09T14:43:00;5.93;;;2.45;;
13432;SDS011;6789;47.678;9.158;2023-07-09T14:48:10;5.25;;;2.45;;
13432;SDS011;6789;47.678;9.158;2023-07-09T14:53:24;4.35;;;2.15;;
13432;SDS011;6789;47.678;9.158;2023-07-09T14:58:22;3.47;;;2.20;;
13432;SDS011;6789;47.678;9.158;2023-07-09T15:03:19;6.10;;;2.15;;
13432;SDS011;6789;47.678;9.158;2023-07-09T15:08:18;4.63;;;2.22;;
13432;SDS011;6789;47.678;9.158;2023-07-09T15:13:21;4.43;;;2.25;;
13432;SDS011;6789;47.678;9.158;2023-07-09T15:18:25;5.95;;;2.50;;
13432;SDS011;6789;47.678;9.158;2023-07-09T15:23:34;4.80;;;2.47;;
13432;SDS011;6789;47.678;9.158;2023-07-09T15:28:32;4.20;;;2.22;;
13432;SDS011;6789;47.678;9.158;2023-07-09T15:33:24;4.43;;;2.22;;
13432;SDS011;6789;47.678;9.158;2023-07-09T15:38:37;4.35;;;2.30;;
13432;SDS011;6789;47.678;9.158;2023-07-09T15:43:32;6.47;;;2.67;;
13432;SDS011;6789;47.678;9.158;2023-07-09T15:48:25;3.80;;;2.42;;
13432;SDS011;6789;47.678;9.158;2023-07-09T15:53:25;3.85;;;2.38;;
13432;SDS011;6789;47.678;9.158;2023-07-09T15:58:24;4.57;;;2.20;;
13432;SDS011;6789;47.678;9.158;2023-07-09T16:03:20;3.35;;;2.10;;
13432;SDS011;6789;47.678;9.158;2023-07-09T16:08:17;4.97;;;2.63;;
13432;SDS011;6789;47.678;9.158;2023-07-09T16:13:17;5.00;;;2.28;;
13432;SDS011;6789;47.678;9.158;2023-07-09T16:18:12;3.20;;;2.10;;
13432;SDS011;6789;47.678;9.158;2023-07-09T16:28:18;4.70;;;2.30;;
13432;SDS011;6789;47.678;9.158;2023-07-09T16:33:11;3.35;;;2.25;;
13432;SDS011;6789;47.678;9.158;2023-07-09T16:38:04;3.80;;;2.03;;
13432;SDS011;6789;47.678;9.158;2023-07-09T16:43:04;5.00;;;2.50;;
13432;SDS011;6789;47.678;9.158;2023-07-09T16:48:16;3.67;;;2.08;;
13432;SDS011;6789;47.678;9.158;2023-07-09T16:53:15;3.97;;;2.38;;
13432;SDS011;6789;47.678;9.158;2023-07-09T16:58:28;5.65;;;2.30;;
13432;SDS011;6789;47.678;9.158;2023-07-09T17:03:30;3.47;;;2.17;;
13432;SDS011;6789;47.678;9.158;2023-07-09T17:08:22;3.00;;;1.90;;
13432;SDS011;6789;47.678;9.158;2023-07-09T17:13:23;3.03;;;2.25;;
13432;SDS011;6789;47.678;9.158;2023-07-09T17:18:19;3.58;;;2.72;;
13432;SDS011;6789;47.678;9.158;2023-07-09T17:23:14;4.78;;;2.33;;
13432;SDS011;6789;47.678;9.158;2023-07-09T17:28:16;3.35;;;2.30;;
13432;SDS011;6789;47.678;9.158;2023-07-09T17:33:16;4.40;;;2.40;;
13432;SDS011;6789;47.678;9.158;2023-07-09T17:38:12;5.28;;;3.08;;
13432;SDS011;6789;47.678;9.158;2023-07-09T17:43:20;3.17;;;2.03;;
13432;SDS011;6789;47.678;9.158;2023-07-09T17:48:16;4.05;;;2.30;;
13432;SDS011;6789;47.678;9.158;2023-07-09T17:53:32;3.13;;;2.33;;
13432;SDS011;6789;47.678;9.158;2023-07-09T17:58:37;4.50;;;2.25;;
13432;SDS011;6789;47.678;9.158;2023-07-09T18:03:32;5.13;;;2.67;;
13432;SDS011;6789;47.678;9.158;2023-07-09T18:08:25;5.25;;;2.55;;
13432;SDS011;6789;47.678;9.158;2023-07-09T18:13:24;4.97;;;2.47;;
13432;SDS011;6789;47.678;9.158;2023-07-09T18:18:19;3.38;;;2.22;;
13432;SDS011;6789;47.678;9.158;2023-07-09T18:23:12;7.07;;;2.38;;
13432;SDS011;6789;47.678;9.158;2023-07-09T18:28:04;3.28;;;2.33;;
13432;SDS011;6789;47.678;9.158;2023-07-09T18:33:00;7.07;;;2.72;;
13432;SDS011;6789;47.678;9.158;2023-07-09T18:37:56;5.25;;;2.33;;
13432;SDS011;6789;47.678;9.158;2023-07-09T18:42:50;5.05;;;3.05;;
13432;SDS011;6789;47.678;9.158;2023-07-09T18:47:43;4.80;;;2.92;;
13432;SDS011;6789;47.678;9.158;2023-07-09T18:52:36;6.25;;;2.60;;
13432;SDS011;6789;47.678;9.158;2023-07-09T18:57:28;5.18;;;2.70;;
13432;SDS011;6789;47.678;9.158;2023-07-09T19:02:20;3.97;;;2.65;;
13432;SDS011;6789;47.678;9.158;2023-07-09T19:07:16;6.85;;;3.17;;
13432;SDS011;6789;47.678;9.158;2023-07-09T19:12:11;4.72;;;2.63;;
13432;SDS011;6789;47.678;9.158;2023-07-09T19:17:05;4.93;;;3.00;;
13432;SDS011;6789;47.678;9.158;2023-07-09T19:22:06;5.70;;;3.00;;
13432;SDS011;6789;47.678;9.158;2023-07-09T19:27:03;6.38;;;2.95;;
13432;SDS011;6789;47.678;9.158;2023-07-09T19:31:57;5.97;;;3.10;;
13432;SDS011;6789;47.678;9.158;2023-07-09T19:36:56;4.65;;;3.25;;
13432;SDS011;6789;47.678;9.158;2023-07-09T19:41:52;4.10;;;2.72;;
13432;SDS011;6789;47.678;9.158;2023-07-09T19:46:50;4.68;;;2.60;;
13432;SDS011;6789;47.678;9.158;2023-07-09T19:51:42;5.90;;;3.97;;
13432;SDS011;6789;47.678;9.158;2023-07-09T19:56:34;6.18;;;3.65;;
13432;SDS011;6789;47.678;9.158;2023-07-09T20:01:26;4.20;;;3.15;;
13432;SDS011;6789;47.678;9.158;2023-07-09T20:06:18;6.53;;;3.72;;
13432;SDS011;6789;47.678;9.158;2023-07-09T20:11:11;3.15;;;2.38;;
13432;SDS011;6789;47.678;9.158;2023-07-09T20:16:08;7.47;;;2.30;;
13432;SDS011;6789;47.678;9.158;2023-07-09T20:21:21;3.95;;;2.85;;
13432;SDS011;6789;47.678;9.158;2023-07-09T20:26:16;4.13;;;2.58;;
13432;SDS011;6789;47.678;9.158;2023-07-09T20:31:16;5.53;;;3.20;;
13432;SDS011;6789;47.678;9.158;2023-07-09T20:36:14;5.97;;;3.13;;
13432;SDS011;6789;47.678;9.158;2023-07-09T20:41:09;5.70;;;3.58;;
13432;SDS011;6789;47.678;9.158;2023-07-09T20:46:09;6.55;;;3.72;;
13432;SDS011;6789;47.678;9.158;2023-07-09T20:51:01;6.07;;;3.97;;
13432;SDS011;6789;47.678;9.158;2023-07-09T20:55:54;5.70;;;3.15;;
13432;SDS011;6789;47.678;9.158;2023-07-09T21:00:50;9.20;;;4.07;;
13432;SDS011;6789;47.678;9.158;2023-07-09T21:05:47;6.65;;;3.83;;
13432;SDS011;6789;47.678;9.158;2023-07-09T21:10:40;4.85;;;3.50;;
13432;SDS011;6789;47.678;9.158;2023-07-09T21:15:34;7.28;;;3.50;;
13432;SDS011;6789;47.678;9.158;2023-07-09T21:20:25;4.88;;;2.83;;
13432;SDS011;6789;47.678;9.158;2023-07-09T21:25:22;7.80;;;4.03;;
13432;SDS011;6789;47.678;9.158;2023-07-09T21:30:16;5.82;;;3.88;;
13432;SDS011;6789;47.678;9.158;2023-07-09T21:45:30;6.75;;;2.80;;
13432;SDS011;6789;47.678;9.158;2023-07-09T21:50:32;5.72;;;3.13;;
13432;SDS011;6789;47.678;9.158;2023-07-09T21:55:25;5.30;;;3.25;;
13432;SDS011;6789;47.678;9.158;2023-07-09T22:00:20;4.47;;;3.20;;
13432;SDS011;6789;47.678;9.158;2023-07-09T22:05:22;7.85;;;3.65;;
13432;SDS011;6789;47.678;9.158;2023-07-09T22:10:17;4.93;;;3.25;;
13432;SDS011;6789;47.678;9.158;2023-07-09T22:15:21;5.70;;;3.42;;
13432;SDS011;6789;47.678;9.158;2023-07-09T22:20:18;5.10;;;2.95;;
13432;SDS011;6789;47.678;9.158;2023-07-09T22:25:18;4.22;;;2.80;;
13432;SDS011;6789;47.678;9.158;2023-07-09T22:30:15;5.70;;;3.20;;
13432;SDS011;6789;47.678;9.158;2023-07-09T22:35:10;5.20;;;3.10;;
13432;SDS011;6789;47.678;9.158;2023-07-09T22:40:11;5.32;;;3.13;;
13432;SDS011;6789;47.678;9.158;2023-07-09T22:45:04;4.75;;;3.10;;
13432;SDS011;6789;47.678;9.158;2023-07-09T22:49:56;6.82;;;3.08;;
13432;SDS011;6789;47.678;9.158;2023-07-09T22:54:48;5.88;;;2.70;;
13432;SDS011;6789;47.678;9.158;2023-07-09T22:59:39;6.65;;;2.80;;
13432;SDS011;6789;47.678;9.158;2023-07-09T23:04:31;5.50;;;2.75;;
13432;SDS011;6789;47.678;9.158;2023-07-09T23:09:23;6.65;;;3.00;;
13432;SDS011;6789;47.678;9.158;2023-07-09T23:14:20;4.90;;;3.28;;
13432;SDS011;6789;47.678;9.158;2023-07-09T23:19:22;6.03;;;2.90;;
13432;SDS011;6789;47.678;9.158;2023-07-09T23:24:18;3.95;;;2.50;;
13432;SDS011;6789;47.678;9.158;2023-07-09T23:29:11;4.43;;;2.55;;
13432;SDS011;6789;47.678;9.158;2023-07-09T23:34:07;4.13;;;2.78;;
13432;SDS011;6789;47.678;9.158;2023-07-09T23:39:05;5.57;;;2.63;;
13432;SDS011;6789;47.678;9.158;2023-07-09T23:43:58;7.07;;;3.15;;
13432;SDS011;6789;47.678;9.158;2023-07-09T23:48:53;5.20;;;2.88;;
13432;SDS011;6789;47.678;9.158;2023-07-09T23:54:00;5.00;;;2.78;;
13432;SDS011;6789;47.678;9.158;2023-07-09T23:58:52;5.63;;;2.38;;
